Time,TemperatureF,DewpointF,PressureIn,WindDirection,WindDirectionDegrees,WindSpeedMPH,WindSpeedGustMPH,Humidity,HourlyPrecipIn,Conditions,Clouds,dailyrainin,SoftwareType,DateUTC
2013-01-07 00:02:00,50.0,33.0,29.96,West,270,1.0,2.0,51,0.00,,,0.00,,2013-01-07 07:02:00,
2013-01-07 00:11:00,50.0,33.0,29.96,West,270,1.0,2.0,51,0.00,,,0.00,,2013-01-07 07:11:00,
2013-01-07 00:22:00,50.0,34.0,29.96,West,270,2.0,3.0,53,0.00,,,0.00,,2013-01-07 07:22:00,
2013-01-07 00:32:00,49.0,33.0,29.96,West,270,2.0,3.0,53,0.00,,,0.00,,2013-01-07 07:32:00,
2013-01-07 00:42:00,49.0,33.0,29.96,West,270,2.0,3.0,53,0.00,,,0.00,,2013-01-07 07:42:00,
2013-01-07 00:52:00,49.0,33.0,29.96,West,270,2.0,3.0,54,0.00,,,0.00,,2013-01-07 07:52:00,
2013-01-07 01:02:00,49.0,34.0,29.96,West,270,1.0,3.0,55,0.00,,,0.00,,2013-01-07 08:02:00,
2013-01-07 01:11:00,49.0,34.0,29.96,West,270,1.0,3.0,55,0.00,,,0.00,,2013-01-07 08:11:00,
2013-01-07 01:22:00,49.0,34.0,29.96,West,270,0.0,0.0,56,0.00,,,0.00,,2013-01-07 08:22:00,
2013-01-07 01:32:00,49.0,34.0,29.97,West,270,0.0,2.0,56,0.00,,,0.00,,2013-01-07 08:32:00,
2013-01-07 01:42:00,49.0,34.0,29.97,West,270,0.0,2.0,56,0.00,,,0.00,,2013-01-07 08:42:00,
2013-01-07 01:52:00,48.0,34.0,29.96,WSW,248,1.0,2.0,57,0.00,,,0.00,,2013-01-07 08:52:00,
2013-01-07 02:02:00,48.0,34.0,29.96,WSW,248,5.0,9.0,57,0.00,,,0.00,,2013-01-07 09:02:00,
2013-01-07 02:11:00,48.0,34.0,29.96,WSW,248,5.0,9.0,57,0.00,,,0.00,,2013-01-07 09:11:00,
2013-01-07 02:22:00,49.0,34.0,29.96,WNW,293,3.0,6.0,57,0.00,,,0.00,,2013-01-07 09:22:00,
2013-01-07 02:32:00,49.0,34.0,29.96,West,270,0.0,0.0,56,0.00,,,0.00,,2013-01-07 09:32:00,
2013-01-07 02:42:00,49.0,34.0,29.96,West,270,0.0,0.0,56,0.00,,,0.00,,2013-01-07 09:42:00,
2013-01-07 02:52:00,48.0,34.0,29.96,West,270,0.0,0.0,58,0.00,,,0.00,,2013-01-07 09:52:00,
2013-01-07 03:01:00,48.0,34.0,29.96,West,270,0.0,0.0,59,0.00,,,0.00,,2013-01-07 10:01:00,
2013-01-07 03:11:00,48.0,34.0,29.95,West,270,0.0,0.0,59,0.00,,,0.00,,2013-01-07 10:11:00,
2013-01-07 03:22:00,48.0,34.0,29.95,West,270,0.0,0.0,59,0.00,,,0.00,,2013-01-07 10:22:00,
2013-01-07 03:32:00,49.0,36.0,29.95,West,270,6.0,12.0,60,0.00,,,0.00,,2013-01-07 10:32:00,
2013-01-07 03:42:00,49.0,36.0,29.95,West,270,6.0,12.0,60,0.00,,,0.00,,2013-01-07 10:42:00,
2013-01-07 03:52:00,50.0,36.0,29.94,West,270,2.0,5.0,59,0.00,,,0.00,,2013-01-07 10:52:00,
2013-01-07 04:01:00,50.0,36.0,29.95,WNW,293,5.0,7.0,59,0.00,,,0.00,,2013-01-07 11:01:00,
2013-01-07 04:11:00,50.0,36.0,29.95,WNW,293,5.0,7.0,59,0.00,,,0.00,,2013-01-07 11:11:00,
2013-01-07 04:22:00,50.0,36.0,29.95,WNW,293,2.0,6.0,59,0.00,,,0.00,,2013-01-07 11:22:00,
2013-01-07 04:32:00,50.0,36.0,29.95,WNW,293,0.0,0.0,59,0.00,,,0.00,,2013-01-07 11:32:00,
2013-01-07 04:42:00,50.0,36.0,29.95,WNW,293,0.0,0.0,59,0.00,,,0.00,,2013-01-07 11:42:00,
2013-01-07 04:53:00,50.0,36.0,29.94,WNW,293,1.0,2.0,59,0.00,,,0.00,,2013-01-07 11:53:00,
2013-01-07 05:02:00,51.0,37.0,29.94,West,270,3.0,7.0,59,0.00,,,0.00,,2013-01-07 12:02:00,
2013-01-07 05:12:00,51.0,37.0,29.94,West,270,2.0,5.0,59,0.00,,,0.00,,2013-01-07 12:12:00,
2013-01-07 05:22:00,51.0,37.0,29.94,West,270,2.0,5.0,59,0.00,,,0.00,,2013-01-07 12:22:00,
2013-01-07 05:32:00,51.0,37.0,29.94,West,270,3.0,5.0,59,0.00,,,0.00,,2013-01-07 12:32:00,
2013-01-07 05:42:00,51.0,37.0,29.94,West,270,3.0,5.0,59,0.00,,,0.00,,2013-01-07 12:42:00,
2013-01-07 05:52:00,51.0,38.0,29.94,West,270,3.0,6.0,60,0.00,,,0.00,,2013-01-07 12:52:00,
2013-01-07 06:02:00,51.0,38.0,29.94,West,270,1.0,3.0,60,0.00,,,0.00,,2013-01-07 13:02:00,
2013-01-07 06:11:00,51.0,38.0,29.94,West,270,1.0,3.0,60,0.00,,,0.00,,2013-01-07 13:11:00,
2013-01-07 06:22:00,51.0,38.0,29.94,West,270,2.0,3.0,61,0.00,,,0.00,,2013-01-07 13:22:00,
2013-01-07 06:32:00,50.0,37.0,29.95,West,270,2.0,6.0,61,0.00,,,0.00,,2013-01-07 13:32:00,
2013-01-07 06:42:00,50.0,37.0,29.95,West,270,2.0,6.0,61,0.00,,,0.00,,2013-01-07 13:42:00,
2013-01-07 06:53:00,50.0,38.0,29.95,West,270,1.0,6.0,62,0.00,,,0.00,,2013-01-07 13:53:00,
2013-01-07 07:02:00,50.0,38.0,29.95,West,270,1.0,3.0,62,0.00,,,0.00,,2013-01-07 14:02:00,
2013-01-07 07:12:00,50.0,38.0,29.96,West,270,1.0,2.0,62,0.00,,,0.00,,2013-01-07 14:12:00,
2013-01-07 07:22:00,50.0,38.0,29.96,West,270,1.0,2.0,62,0.00,,,0.00,,2013-01-07 14:22:00,
2013-01-07 07:32:00,50.0,38.0,29.96,West,270,1.0,5.0,63,0.00,,,0.00,,2013-01-07 14:32:00,
2013-01-07 07:42:00,50.0,38.0,29.96,West,270,1.0,5.0,63,0.00,,,0.00,,2013-01-07 14:42:00,
2013-01-07 07:53:00,50.0,38.0,29.96,West,270,1.0,2.0,63,0.00,,,0.00,,2013-01-07 14:53:00,
2013-01-07 08:02:00,50.0,38.0,29.96,West,270,2.0,5.0,64,0.00,,,0.00,,2013-01-07 15:02:00,
2013-01-07 08:11:00,50.0,38.0,29.96,West,270,2.0,5.0,64,0.00,,,0.00,,2013-01-07 15:11:00,
2013-01-07 08:22:00,49.0,37.0,29.97,West,270,0.0,1.0,64,0.00,,,0.00,,2013-01-07 15:22:00,
2013-01-07 08:33:00,49.0,38.0,29.97,West,270,0.0,0.0,65,0.00,,,0.00,,2013-01-07 15:33:00,
2013-01-07 08:42:00,49.0,38.0,29.97,West,270,0.0,0.0,65,0.00,,,0.00,,2013-01-07 15:42:00,
2013-01-07 08:53:00,48.0,38.0,29.98,West,270,1.0,2.0,68,0.00,,,0.00,,2013-01-07 15:53:00,
2013-01-07 09:02:00,49.0,39.0,29.99,West,270,0.0,2.0,68,0.00,,,0.00,,2013-01-07 16:02:00,
2013-01-07 09:11:00,49.0,39.0,29.99,West,270,0.0,2.0,68,0.00,,,0.00,,2013-01-07 16:11:00,
2013-01-07 09:22:00,49.0,39.0,30.00,West,270,1.0,3.0,67,0.00,,,0.00,,2013-01-07 16:22:00,
2013-01-07 09:32:00,50.0,39.0,29.99,West,270,3.0,6.0,67,0.00,,,0.00,,2013-01-07 16:32:00,
2013-01-07 09:42:00,50.0,39.0,29.99,West,270,3.0,6.0,67,0.00,,,0.00,,2013-01-07 16:42:00,
2013-01-07 09:53:00,51.0,40.0,30.00,West,270,2.0,3.0,65,0.00,,,0.00,,2013-01-07 16:53:00,
2013-01-07 10:02:00,53.0,40.0,30.01,West,270,3.0,5.0,61,0.00,,,0.00,,2013-01-07 17:02:00,
2013-01-07 10:11:00,53.0,40.0,30.01,West,270,3.0,5.0,61,0.00,,,0.00,,2013-01-07 17:11:00,
2013-01-07 10:22:00,54.0,40.0,30.01,West,270,2.0,3.0,59,0.00,,,0.00,,2013-01-07 17:22:00,
2013-01-07 10:32:00,56.0,41.0,30.01,West,270,3.0,6.0,57,0.00,,,0.00,,2013-01-07 17:32:00,
2013-01-07 10:42:00,56.0,41.0,30.01,West,270,3.0,6.0,57,0.00,,,0.00,,2013-01-07 17:42:00,
2013-01-07 10:53:00,56.0,35.0,30.01,NW,315,5.0,8.0,45,0.00,,,0.00,,2013-01-07 17:53:00,
2013-01-07 11:02:00,57.0,34.0,30.01,NNW,338,3.0,5.0,42,0.00,,,0.00,,2013-01-07 18:02:00,
2013-01-07 11:12:00,57.0,34.0,30.01,NNW,338,3.0,5.0,42,0.00,,,0.00,,2013-01-07 18:12:00,
2013-01-07 11:22:00,57.0,32.0,30.00,NNW,338,6.0,8.0,39,0.00,,,0.00,,2013-01-07 18:22:00,
2013-01-07 11:32:00,58.0,31.0,30.00,NNW,338,8.0,12.0,36,0.00,,,0.00,,2013-01-07 18:32:00,
2013-01-07 11:42:00,58.0,31.0,30.00,NW,315,5.0,8.0,35,0.00,,,0.00,,2013-01-07 18:42:00,
2013-01-07 11:52:00,58.0,31.0,30.00,NW,315,5.0,8.0,35,0.00,,,0.00,,2013-01-07 18:52:00,
2013-01-07 12:02:00,59.0,31.0,29.99,NNW,338,7.0,12.0,34,0.00,,,0.00,,2013-01-07 19:02:00,
2013-01-07 12:12:00,59.0,31.0,29.99,NNW,338,7.0,12.0,34,0.00,,,0.00,,2013-01-07 19:12:00,
2013-01-07 12:22:00,60.0,31.0,29.98,North,0,9.0,13.0,33,0.00,,,0.00,,2013-01-07 19:22:00,
2013-01-07 12:32:00,60.0,31.0,29.97,North,0,8.0,14.0,33,0.00,,,0.00,,2013-01-07 19:32:00,
2013-01-07 12:42:00,60.0,31.0,29.97,North,0,8.0,14.0,33,0.00,,,0.00,,2013-01-07 19:42:00,
2013-01-07 12:53:00,61.0,31.0,29.96,North,0,13.0,20.0,32,0.00,,,0.00,,2013-01-07 19:53:00,
2013-01-07 13:02:00,60.0,30.0,29.95,North,0,8.0,17.0,32,0.00,,,0.00,,2013-01-07 20:02:00,
2013-01-07 13:11:00,60.0,30.0,29.95,North,0,8.0,17.0,32,0.00,,,0.00,,2013-01-07 20:11:00,
2013-01-07 13:22:00,61.0,31.0,29.94,NNW,338,9.0,18.0,32,0.00,,,0.00,,2013-01-07 20:22:00,
2013-01-07 13:32:00,62.0,31.0,29.93,North,0,13.0,20.0,31,0.00,,,0.00,,2013-01-07 20:32:00,
2013-01-07 13:42:00,62.0,31.0,29.93,North,0,13.0,20.0,31,0.00,,,0.00,,2013-01-07 20:42:00,
2013-01-07 13:53:00,62.0,30.0,29.93,North,0,8.0,12.0,30,0.00,,,0.00,,2013-01-07 20:53:00,
2013-01-07 14:02:00,62.0,30.0,29.92,North,0,10.0,18.0,30,0.00,,,0.00,,2013-01-07 21:02:00,
2013-01-07 14:11:00,62.0,30.0,29.92,North,0,10.0,18.0,30,0.00,,,0.00,,2013-01-07 21:11:00,
2013-01-07 14:22:00,63.0,29.0,29.92,NNW,338,8.0,13.0,28,0.00,,,0.00,,2013-01-07 21:22:00,
2013-01-07 14:32:00,63.0,29.0,29.91,NNW,338,10.0,15.0,28,0.00,,,0.00,,2013-01-07 21:32:00,
2013-01-07 14:42:00,63.0,29.0,29.91,NNW,338,10.0,15.0,28,0.00,,,0.00,,2013-01-07 21:42:00,
2013-01-07 14:53:00,63.0,29.0,29.91,NNW,338,10.0,16.0,28,0.00,,,0.00,,2013-01-07 21:53:00,
2013-01-07 15:01:00,64.0,29.0,29.91,North,0,8.0,13.0,27,0.00,,,0.00,,2013-01-07 22:01:00,
2013-01-07 15:11:00,64.0,29.0,29.91,North,0,8.0,13.0,27,0.00,,,0.00,,2013-01-07 22:11:00,
2013-01-07 15:22:00,64.0,29.0,29.91,NNW,338,8.0,12.0,27,0.00,,,0.00,,2013-01-07 22:22:00,
2013-01-07 15:32:00,64.0,28.0,29.92,NNW,338,8.0,15.0,26,0.00,,,0.00,,2013-01-07 22:32:00,
2013-01-07 15:42:00,64.0,28.0,29.92,NNW,338,8.0,15.0,26,0.00,,,0.00,,2013-01-07 22:42:00,
2013-01-07 15:53:00,65.0,30.0,29.92,NW,315,6.0,10.0,27,0.00,,,0.00,,2013-01-07 22:53:00,
2013-01-07 16:02:00,64.0,28.0,29.91,North,0,7.0,12.0,26,0.00,,,0.00,,2013-01-07 23:02:00,
2013-01-07 16:11:00,65.0,28.0,29.92,NNW,338,6.0,8.0,25,0.00,,,0.00,,2013-01-07 23:11:00,
2013-01-07 16:22:00,65.0,28.0,29.92,NNW,338,6.0,8.0,25,0.00,,,0.00,,2013-01-07 23:22:00,
2013-01-07 16:32:00,65.0,27.0,29.92,North,0,5.0,8.0,24,0.00,,,0.00,,2013-01-07 23:32:00,
2013-01-07 16:42:00,65.0,27.0,29.92,North,0,5.0,8.0,24,0.00,,,0.00,,2013-01-07 23:42:00,
2013-01-07 16:53:00,65.0,27.0,29.93,North,0,6.0,10.0,24,0.00,,,0.00,,2013-01-07 23:53:00,
2013-01-07 17:02:00,64.0,26.0,29.93,North,0,9.0,16.0,24,0.00,,,0.00,,2013-01-08 00:02:00,
2013-01-07 17:11:00,64.0,26.0,29.93,North,0,9.0,16.0,24,0.00,,,0.00,,2013-01-08 00:11:00,
2013-01-07 17:22:00,64.0,26.0,29.93,North,0,8.0,12.0,24,0.00,,,0.00,,2013-01-08 00:22:00,
2013-01-07 17:32:00,63.0,26.0,29.92,North,0,6.0,10.0,24,0.00,,,0.00,,2013-01-08 00:32:00,
2013-01-07 17:42:00,63.0,26.0,29.92,North,0,6.0,10.0,24,0.00,,,0.00,,2013-01-08 00:42:00,
2013-01-07 17:52:00,63.0,26.0,29.92,North,0,6.0,9.0,24,0.00,,,0.00,,2013-01-08 00:52:00,
2013-01-07 18:02:00,62.0,26.0,29.92,North,0,2.0,3.0,25,0.00,,,0.00,,2013-01-08 01:02:00,
2013-01-07 18:11:00,62.0,26.0,29.92,North,0,2.0,3.0,25,0.00,,,0.00,,2013-01-08 01:11:00,
2013-01-07 18:22:00,62.0,26.0,29.92,North,0,5.0,7.0,25,0.00,,,0.00,,2013-01-08 01:22:00,
2013-01-07 18:32:00,62.0,26.0,29.92,North,0,5.0,7.0,25,0.00,,,0.00,,2013-01-08 01:32:00,
2013-01-07 18:42:00,62.0,26.0,29.92,North,0,5.0,7.0,25,0.00,,,0.00,,2013-01-08 01:42:00,
2013-01-07 18:52:00,62.0,26.0,29.92,North,0,5.0,7.0,25,0.00,,,0.00,,2013-01-08 01:52:00,
2013-01-07 19:02:00,62.0,26.0,29.92,North,0,5.0,7.0,25,0.00,,,0.00,,2013-01-08 02:02:00,
2013-01-07 19:11:00,62.0,26.0,29.92,North,0,5.0,7.0,25,0.00,,,0.00,,2013-01-08 02:11:00,
2013-01-07 19:22:00,62.0,26.0,29.92,North,0,5.0,7.0,25,0.00,,,0.00,,2013-01-08 02:22:00,
2013-01-07 19:32:00,62.0,26.0,29.92,North,0,5.0,7.0,25,0.00,,,0.00,,2013-01-08 02:32:00,
2013-01-07 19:42:00,62.0,26.0,29.92,North,0,5.0,7.0,25,0.00,,,0.00,,2013-01-08 02:42:00,
2013-01-07 19:53:00,62.0,26.0,29.92,North,0,5.0,7.0,25,0.00,,,0.00,,2013-01-08 02:53:00,
2013-01-07 20:02:00,62.0,26.0,29.92,North,0,5.0,7.0,25,0.00,,,0.00,,2013-01-08 03:02:00,
2013-01-07 20:11:00,62.0,26.0,29.92,North,0,5.0,7.0,25,0.00,,,0.00,,2013-01-08 03:11:00,
2013-01-07 20:22:00,62.0,26.0,29.92,North,0,5.0,7.0,25,0.00,,,0.00,,2013-01-08 03:22:00,
2013-01-07 20:32:00,62.0,26.0,29.92,North,0,5.0,7.0,25,0.00,,,0.00,,2013-01-08 03:32:00,
2013-01-07 20:42:00,62.0,26.0,29.92,North,0,5.0,7.0,25,0.00,,,0.00,,2013-01-08 03:42:00,
2013-01-07 20:53:00,62.0,26.0,29.92,North,0,5.0,7.0,25,0.00,,,0.00,,2013-01-08 03:53:00,
2013-01-07 21:02:00,62.0,26.0,29.92,North,0,5.0,7.0,25,0.00,,,0.00,,2013-01-08 04:02:00,
2013-01-07 21:11:00,62.0,26.0,29.92,North,0,5.0,7.0,25,0.00,,,0.00,,2013-01-08 04:11:00,
2013-01-07 21:22:00,62.0,26.0,29.92,North,0,5.0,7.0,25,0.00,,,0.00,,2013-01-08 04:22:00,
2013-01-07 21:32:00,62.0,26.0,29.92,North,0,5.0,7.0,25,0.00,,,0.00,,2013-01-08 04:32:00,
2013-01-07 21:42:00,62.0,26.0,29.92,North,0,5.0,7.0,25,0.00,,,0.00,,2013-01-08 04:42:00,
2013-01-07 21:52:00,62.0,26.0,29.92,North,0,5.0,7.0,25,0.00,,,0.00,,2013-01-08 04:52:00,
2013-01-07 22:22:00,62.0,26.0,29.92,North,0,5.0,7.0,25,0.00,,,0.00,,2013-01-08 05:22:00,
2013-01-07 22:32:00,62.0,26.0,29.92,North,0,5.0,7.0,25,0.00,,,0.00,,2013-01-08 05:32:00,
2013-01-07 22:53:00,62.0,26.0,29.92,North,0,5.0,7.0,25,0.00,,,0.00,,2013-01-08 05:53:00,
2013-01-07 23:02:00,62.0,26.0,29.92,North,0,5.0,7.0,25,0.00,,,0.00,,2013-01-08 06:02:00,
2013-01-07 23:22:00,62.0,26.0,29.92,North,0,5.0,7.0,25,0.00,,,0.00,,2013-01-08 06:22:00,
2013-01-07 23:32:00,62.0,26.0,29.92,North,0,5.0,7.0,25,0.00,,,0.00,,2013-01-08 06:32:00,
2013-01-07 23:52:00,62.0,26.0,29.92,North,0,5.0,7.0,25,0.00,,,0.00,,2013-01-08 06:52:00,